WetterOnline ( https://www.wetteronline.de )

Wetter aktuell Haßmersheim

Aktuelles Wetter: Waibstadt (237m)

6-stündlich | Neueste Meldungen
Ortszeit Temperatur Wetter
Mo, 19.10. 14:00 11.4° C bedeckt
Mo, 19.10. 8:00 6.3° C bedeckt
Mo, 19.10. 2:00 6.9° C bedeckt
So, 18.10. 20:00 8.4° C bedeckt
So, 18.10. 14:00 11.1° C leicht bewölkt
So, 18.10. 8:00 4.0° C Nebel
So, 18.10. 2:00 7.0° C bedeckt
Sa, 17.10. 20:00 7.9° C bedeckt
Ortszeit Temperatur Wetter
Mo, 19.10. 18:00 9.9° C wolkenlos
Mo, 19.10. 17:50 9.9° C wolkenlos
Mo, 19.10. 17:40 10.4° C wolkenlos
Mo, 19.10. 17:30 11.4° C wolkenlos
Mo, 19.10. 17:20 11.4° C wolkenlos
Mo, 19.10. 17:10 11.3° C fast wolkenlos
Mo, 19.10. 17:00 11.8° C leicht bewölkt
Mo, 19.10. 16:30 12.0° C leicht bewölkt
Mo, 19.10. 16:00 12.5° C fast wolkenlos
Mo, 19.10. 15:30 13.4° C wolkig
Mo, 19.10. 15:00 12.6° C leicht bewölkt
Ortszeit Relative Feuchte Sichtweite
Mo, 19.10. 14:00 69% 22 km
Mo, 19.10. 8:00 99% 5.0 km
Mo, 19.10. 2:00 96% 11 km
So, 18.10. 20:00 72% 35 km
So, 18.10. 14:00 60% 30 km
So, 18.10. 8:00 99% 100 m
So, 18.10. 2:00 97% 9 km
Sa, 17.10. 20:00 92% 40 km
Ortszeit Relative Feuchte Sichtweite
Mo, 19.10. 18:00 67% 55 km
Mo, 19.10. 17:50 67% -
Mo, 19.10. 17:40 59% -
Mo, 19.10. 17:30 55% 50 km
Mo, 19.10. 17:20 55% -
Mo, 19.10. 17:10 56% -
Mo, 19.10. 17:00 56% 50 km
Mo, 19.10. 16:30 51% 45 km
Mo, 19.10. 16:00 52% 40 km
Mo, 19.10. 15:30 48% 30 km
Mo, 19.10. 15:00 55% 35 km
Ortszeit Niederschlagsmenge Niederschlagsart
Mo, 19.10. 14:00 0.0 l/m2 in 6 Std. -
Mo, 19.10. 8:00 0.1 l/m2 in 12 Std. Regen
Mo, 19.10. 2:00 0.0 l/m2 in 6 Std. -
So, 18.10. 20:00 0.0 l/m2 in 12 Std. -
So, 18.10. 14:00 0.0 l/m2 in 6 Std. -
So, 18.10. 8:00 0.1 l/m2 in 12 Std. -
So, 18.10. 2:00 0.1 l/m2 in 6 Std. Regen
Sa, 17.10. 20:00 0.2 l/m2 in 12 Std. Regen
Ortszeit Niederschlagsmenge Niederschlagsart
Mo, 19.10. 18:00 0.0 l/m2 in 1 Std. -
Mo, 19.10. 17:50 keine Meldung -
Mo, 19.10. 17:40 keine Meldung -
Mo, 19.10. 17:30 0.0 l/m2 in 1 Std. -
Mo, 19.10. 17:20 keine Meldung -
Mo, 19.10. 17:10 keine Meldung -
Mo, 19.10. 17:00 0.0 l/m2 in 1 Std. -
Mo, 19.10. 16:30 0.0 l/m2 in 1 Std. -
Mo, 19.10. 16:00 0.0 l/m2 in 1 Std. -
Mo, 19.10. 15:30 0.0 l/m2 in 1 Std. -
Mo, 19.10. 15:00 0.0 l/m2 in 1 Std. -
Ortszeit Stärke Spitze Richtung
km/h Bft. km/h Grad Sektor
Mo, 19.10. 14:00 4 1 11 40° NO
Mo, 19.10. 8:00 0 0 7 - -
Mo, 19.10. 2:00 0 0 18 - -
So, 18.10. 20:00 0 0 18 - -
So, 18.10. 14:00 11 2 22 270° W
So, 18.10. 8:00 0 0 7 - -
So, 18.10. 2:00 4 1 7 270° W
Sa, 17.10. 20:00 4 1 14 310° NW
Ortszeit Stärke Spitze Richtung
km/h Bft. km/h Grad Sektor
Mo, 19.10. 18:00 7 2 14 120° SO
Mo, 19.10. 17:50 7 2 - 120° SO
Mo, 19.10. 17:40 6 1 - 100° O
Mo, 19.10. 17:30 6 1 9 100° O
Mo, 19.10. 17:20 6 1 - 100° O
Mo, 19.10. 17:10 4 1 - 120° SO
Mo, 19.10. 17:00 7 2 14 120° SO
Mo, 19.10. 16:30 7 2 14 120° SO
Mo, 19.10. 16:00 7 2 14 130° SO
Mo, 19.10. 15:30 4 1 14 250° W
Mo, 19.10. 15:00 9 2 24 180° S
Ortszeit Untergrenze Bedeckung Gattung
total tief tief mittel hoch
Mo, 19.10. 14:00 1500 m 8/8 8/8 - - -
Mo, 19.10. 8:00 1500 m 8/8 8/8 - - -
Mo, 19.10. 2:00 1500 m 8/8 8/8 - - -
So, 18.10. 20:00 1500 m 8/8 8/8 - - -
So, 18.10. 14:00 720 m 3/8 3/8 - - -
So, 18.10. 8:00 <30 m 8/8 0/8 - - -
So, 18.10. 2:00 1500 m 8/8 8/8 - - -
Sa, 17.10. 20:00 1800 m 8/8 8/8 - - -
Ortszeit Bedeckungsgrad in Achtel und Wolkenuntergrenze
Mo, 19.10. 18:00 keine Wolken
Mo, 19.10. 17:50 keine Wolken
Mo, 19.10. 17:40 keine Wolken
Mo, 19.10. 17:30 keine Wolken
Mo, 19.10. 17:20 keine Wolken
Mo, 19.10. 17:10 1(1500m)
Mo, 19.10. 17:00 2(1500m)
Mo, 19.10. 16:30 2(1320m)
Mo, 19.10. 16:00 1(1140m)
Mo, 19.10. 15:30 3(1200m) 5(1500m)
Mo, 19.10. 15:00 2(870m) 3(1020m) 4(1500m)
Ortszeit Luftdruck NN (hPa) Tendenz (hPa in 3 Std.)
Mo, 19.10. 14:00 1023 - 0,9
Mo, 19.10. 8:00 1024 - 0,1
Mo, 19.10. 2:00 1025 0,0
So, 18.10. 20:00 1024 + 0,8
So, 18.10. 14:00 1024 - 0,6
So, 18.10. 8:00 1023 + 0,8
So, 18.10. 2:00 1022 + 0,3
Sa, 17.10. 20:00 1021 + 0,8
Ortszeit Luftdruck NN (hPa) Tendenz (hPa in 3 Std.)
Mo, 19.10. 18:00 1021 - 1,4
Mo, 19.10. 17:50 1021 keine Meldung
Mo, 19.10. 17:40 1021 keine Meldung
Mo, 19.10. 17:30 1022 - 1,0
Mo, 19.10. 17:20 1022 keine Meldung
Mo, 19.10. 17:10 1022 keine Meldung
Mo, 19.10. 17:00 1022 - 1,5
Mo, 19.10. 16:30 1022 - 1,7
Mo, 19.10. 16:00 1022 - 1,9
Mo, 19.10. 15:30 1022 - 2,0
Mo, 19.10. 15:00 1022 - 1,5
Ortszeit Schneehöhe (cm)
Mo, 19.10. 14:00 0
Mo, 19.10. 8:00 0
Mo, 19.10. 2:00 0
So, 18.10. 20:00 0
So, 18.10. 14:00 0
So, 18.10. 8:00 0
So, 18.10. 2:00 0
Sa, 17.10. 20:00 0
Ortszeit Schneehöhe (cm)
Mo, 19.10. 18:00 0
Mo, 19.10. 17:50 0
Mo, 19.10. 17:40 0
Mo, 19.10. 17:30 0
Mo, 19.10. 17:20 0
Mo, 19.10. 17:10 0
Mo, 19.10. 17:00 0
Mo, 19.10. 16:30 0
Mo, 19.10. 16:00 0
Mo, 19.10. 15:30 0
Mo, 19.10. 15:00 0
Link zu dieser Seite / Seite empfehlen

Das Wetter in ...